createdAt,value
2019-01-30T00:00:02.952Z,89.23
2019-01-30T00:01:02.931Z,89.65
2019-01-30T00:02:02.922Z,89.76
2019-01-30T00:03:02.912Z,89.86
2019-01-30T00:04:02.901Z,89.34
2019-01-30T00:05:02.911Z,90.33
2019-01-30T00:06:02.878Z,90.53
2019-01-30T00:07:02.878Z,91.16
2019-01-30T00:08:02.859Z,91.06
2019-01-30T00:09:02.850Z,91.06
2019-01-30T00:10:02.841Z,90.95
2019-01-30T00:11:02.847Z,91.58
2019-01-30T00:12:02.816Z,91.37
2019-01-30T00:13:02.807Z,91.37
2019-01-30T00:14:02.798Z,90.74
2019-01-30T00:15:02.790Z,90.53
2019-01-30T00:16:02.789Z,90.70
2019-01-30T00:17:02.766Z,90.95
2019-01-30T00:18:02.755Z,90.39
2019-01-30T00:19:02.783Z,90.01
2019-01-30T00:20:02.742Z,89.90
2019-01-30T00:21:02.754Z,89.59
2019-01-30T00:22:02.716Z,89.90
2019-01-30T00:23:02.706Z,89.59
2019-01-30T00:24:02.695Z,89.34
2019-01-30T00:25:02.683Z,88.96
2019-01-30T00:26:02.681Z,89.17
2019-01-30T00:27:02.661Z,88.96
2019-01-30T00:28:02.656Z,89.84
2019-01-30T00:29:02.640Z,90.53
2019-01-30T00:30:04.127Z,90.47
2019-01-30T00:31:02.633Z,90.22
2019-01-30T00:32:02.633Z,90.89
2019-01-30T00:33:02.600Z,90.89
2019-01-30T00:34:02.588Z,90.78
2019-01-30T00:35:02.583Z,90.78
2019-01-30T00:36:02.587Z,90.72
2019-01-30T00:37:02.559Z,91.03
2019-01-30T00:38:02.547Z,90.87
2019-01-30T00:39:02.538Z,91.46
2019-01-30T00:40:02.527Z,91.66
2019-01-30T00:41:02.530Z,92.65
2019-01-30T00:42:02.507Z,92.86
2019-01-30T00:43:02.527Z,92.71
2019-01-30T00:44:02.485Z,92.50
2019-01-30T00:45:02.476Z,93.02
2019-01-30T00:46:02.481Z,92.61
2019-01-30T00:47:02.454Z,92.44
2019-01-30T00:48:02.452Z,92.65
2019-01-30T00:49:02.435Z,92.86
2019-01-30T00:50:02.423Z,92.76
2019-01-30T00:51:02.423Z,93.01
2019-01-30T00:52:02.407Z,93.27
2019-01-30T00:53:02.396Z,93.84
2019-01-30T00:54:02.380Z,94.06
2019-01-30T00:55:02.372Z,93.95
2019-01-30T00:56:02.371Z,94.16
2019-01-30T00:57:02.351Z,94.37
2019-01-30T00:58:02.339Z,94.79
2019-01-30T00:59:02.334Z,94.47
2019-01-30T01:00:02.319Z,94.79
2019-01-30T01:01:02.320Z,95.10
2019-01-30T01:02:02.297Z,95.00
2019-01-30T01:03:02.288Z,95.21
2019-01-30T01:04:02.277Z,95.00
2019-01-30T01:05:02.265Z,94.79
2019-01-30T01:06:02.275Z,95.25
2019-01-30T01:07:02.248Z,94.83
2019-01-30T01:08:02.237Z,94.93
2019-01-30T01:09:03.205Z,94.83
2019-01-30T01:10:02.227Z,95.67
2019-01-30T01:11:02.214Z,95.78
2019-01-30T01:12:02.209Z,95.78
2019-01-30T01:13:02.420Z,95.78
2019-01-30T01:14:02.182Z,95.46
2019-01-30T01:15:02.173Z,95.61
2019-01-30T01:16:02.177Z,95.78
2019-01-30T01:17:02.146Z,95.56
2019-01-30T01:18:02.131Z,95.56
2019-01-30T01:19:02.142Z,95.46
2019-01-30T01:20:02.172Z,95.56
2019-01-30T01:21:02.118Z,95.78
2019-01-30T01:22:02.094Z,95.67
2019-01-30T01:23:02.085Z,94.89
2019-01-30T01:24:02.079Z,94.89
2019-01-30T01:25:02.073Z,94.79
2019-01-30T01:26:02.119Z,94.89
2019-01-30T01:27:02.110Z,94.68
2019-01-30T01:28:02.028Z,94.83
2019-01-30T01:29:02.017Z,94.83
2019-01-30T01:30:02.005Z,95.73
2019-01-30T01:31:02.014Z,95.52
2019-01-30T01:32:01.988Z,95.73
2019-01-30T01:33:01.976Z,94.79
2019-01-30T01:34:01.981Z,95.21
2019-01-30T01:35:01.957Z,95.00
2019-01-30T01:36:01.954Z,94.73
2019-01-30T01:37:01.934Z,94.83
2019-01-30T01:38:01.923Z,95.42
2019-01-30T01:39:01.913Z,95.52
2019-01-30T01:40:01.905Z,95.42
2019-01-30T01:41:01.903Z,95.25
2019-01-30T01:42:01.879Z,95.25
2019-01-30T01:43:01.887Z,95.21
2019-01-30T01:44:01.864Z,94.73
2019-01-30T01:45:01.850Z,95.10
2019-01-30T01:46:01.849Z,95.25
2019-01-30T01:47:01.829Z,95.15
2019-01-30T01:48:01.817Z,94.83
2019-01-30T01:49:01.891Z,95.21
2019-01-30T01:50:01.799Z,94.79
2019-01-30T01:51:01.798Z,94.89
2019-01-30T01:52:01.778Z,94.79
2019-01-30T01:53:01.773Z,94.89
2019-01-30T01:54:01.759Z,95.21
2019-01-30T01:55:01.749Z,95.58
2019-01-30T01:56:01.751Z,95.84
2019-01-30T01:57:01.723Z,95.84
2019-01-30T01:58:01.713Z,95.00
2019-01-30T01:59:01.707Z,94.68
2019-01-30T02:00:01.694Z,94.16
2019-01-30T02:01:01.694Z,93.84
2019-01-30T02:02:01.674Z,93.95
2019-01-30T02:03:01.665Z,93.47
2019-01-30T02:04:01.651Z,93.19
2019-01-30T02:05:01.644Z,93.30
2019-01-30T02:06:01.707Z,92.77
2019-01-30T02:07:01.651Z,93.62
2019-01-30T02:08:01.610Z,93.82
2019-01-30T02:09:01.600Z,94.24
2019-01-30T02:10:01.589Z,94.08
2019-01-30T02:11:01.596Z,94.14
2019-01-30T02:12:01.568Z,94.14
2019-01-30T02:13:01.566Z,93.62
2019-01-30T02:14:01.554Z,94.14
2019-01-30T02:15:01.540Z,93.97
2019-01-30T02:16:01.541Z,94.04
2019-01-30T02:17:01.518Z,93.72
2019-01-30T02:18:01.506Z,94.14
2019-01-30T02:19:01.503Z,94.24
2019-01-30T02:20:01.487Z,94.45
2019-01-30T02:21:01.532Z,93.97
2019-01-30T02:22:01.463Z,94.49
2019-01-30T02:23:01.453Z,94.29
2019-01-30T02:24:01.442Z,94.18
2019-01-30T02:25:01.481Z,94.39
2019-01-30T02:26:01.418Z,94.08
2019-01-30T02:27:01.424Z,94.39
2019-01-30T02:28:01.400Z,94.39
2019-01-30T02:29:01.392Z,94.29
2019-01-30T02:30:01.387Z,94.75
2019-01-30T02:31:01.402Z,94.96
2019-01-30T02:32:01.370Z,94.39
2019-01-30T02:33:01.350Z,94.75
2019-01-30T02:34:01.339Z,94.81
2019-01-30T02:35:01.327Z,94.85
2019-01-30T02:36:01.316Z,94.85
2019-01-30T02:37:01.328Z,94.92
2019-01-30T02:38:01.348Z,94.92
2019-01-30T02:39:01.289Z,95.06
2019-01-30T02:40:01.394Z,95.28
2019-01-30T02:41:01.271Z,95.02
2019-01-30T02:42:01.271Z,95.76
2019-01-30T02:43:01.259Z,95.34
2019-01-30T02:44:01.234Z,94.96
2019-01-30T02:45:01.231Z,95.17
2019-01-30T02:46:01.214Z,95.02
2019-01-30T02:47:01.226Z,95.97
2019-01-30T02:48:01.200Z,95.54
2019-01-30T02:49:01.204Z,94.81
2019-01-30T02:50:01.245Z,94.92
2019-01-30T02:51:01.165Z,94.81
2019-01-30T02:52:01.165Z,94.81
2019-01-30T02:53:01.161Z,95.06
2019-01-30T02:54:01.133Z,95.28
2019-01-30T02:55:01.121Z,94.92
2019-01-30T02:56:01.114Z,94.96
2019-01-30T02:57:01.113Z,94.81
2019-01-30T02:58:01.091Z,95.54
2019-01-30T02:59:01.082Z,95.86
2019-01-30T03:00:01.075Z,95.86
2019-01-30T03:01:01.067Z,95.86
2019-01-30T03:02:01.064Z,95.65
2019-01-30T03:03:01.039Z,95.54
2019-01-30T03:04:01.030Z,95.86
2019-01-30T03:05:01.020Z,95.54
2019-01-30T03:06:01.009Z,95.54
2019-01-30T03:07:01.010Z,95.54
2019-01-30T03:08:00.989Z,95.44
2019-01-30T03:09:00.976Z,95.54
2019-01-30T03:10:00.969Z,95.65
2019-01-30T03:11:00.957Z,95.44
2019-01-30T03:12:00.962Z,95.54
2019-01-30T03:13:00.957Z,95.44
2019-01-30T03:14:00.927Z,95.59
2019-01-30T03:15:00.917Z,95.65
2019-01-30T03:16:00.907Z,95.54
2019-01-30T03:17:00.906Z,95.54
2019-01-30T03:18:00.883Z,95.76
2019-01-30T03:19:00.874Z,95.50
2019-01-30T03:20:00.870Z,95.50
2019-01-30T03:21:00.855Z,95.54
2019-01-30T03:22:00.852Z,95.76
2019-01-30T03:23:00.834Z,95.34
2019-01-30T03:24:00.825Z,95.02
2019-01-30T03:25:00.868Z,94.92
2019-01-30T03:26:00.804Z,94.92
2019-01-30T03:27:00.804Z,95.13
2019-01-30T03:28:00.782Z,94.81
2019-01-30T03:29:00.774Z,94.81
2019-01-30T03:30:00.770Z,95.13
2019-01-30T03:31:15.583Z,94.92
2019-01-30T03:32:01.758Z,94.85
2019-01-30T03:33:00.744Z,94.54
2019-01-30T03:34:00.742Z,94.43
2019-01-30T03:35:00.709Z,94.96
2019-01-30T03:36:00.700Z,94.43
2019-01-30T03:37:00.700Z,94.43
2019-01-30T03:38:00.677Z,94.85
2019-01-30T03:39:00.669Z,95.13
2019-01-30T03:40:00.660Z,95.13
2019-01-30T03:41:00.647Z,95.38
2019-01-30T03:42:00.647Z,95.13
2019-01-30T03:43:00.639Z,95.44
2019-01-30T03:44:00.615Z,95.13
2019-01-30T03:45:00.605Z,95.06
2019-01-30T03:46:00.594Z,94.75
2019-01-30T03:47:00.597Z,94.54
2019-01-30T03:48:00.583Z,94.33
2019-01-30T03:49:00.563Z,94.23
2019-01-30T03:50:00.553Z,93.91
2019-01-30T03:51:00.544Z,93.91
2019-01-30T03:52:00.564Z,93.80
2019-01-30T03:53:00.524Z,94.01
2019-01-30T03:54:00.520Z,94.23
2019-01-30T03:55:00.508Z,93.85
2019-01-30T03:56:00.495Z,94.01
2019-01-30T03:57:00.492Z,94.01
2019-01-30T03:58:00.472Z,94.23
2019-01-30T03:59:00.461Z,94.43
2019-01-30T04:00:00.457Z,94.12
2019-01-30T04:01:00.441Z,94.01
2019-01-30T04:02:00.456Z,94.43
2019-01-30T04:03:00.420Z,94.43
2019-01-30T04:04:00.421Z,94.43
2019-01-30T04:05:00.485Z,94.29
2019-01-30T04:06:00.394Z,94.18
2019-01-30T04:07:00.392Z,94.08
2019-01-30T04:08:00.381Z,94.14
2019-01-30T04:09:00.356Z,94.14
2019-01-30T04:10:00.349Z,94.29
2019-01-30T04:11:00.339Z,93.97
2019-01-30T04:12:00.341Z,93.87
2019-01-30T04:13:00.346Z,93.76
2019-01-30T04:14:00.748Z,93.87
2019-01-30T04:15:00.298Z,93.87
2019-01-30T04:16:00.284Z,93.82
2019-01-30T04:17:00.294Z,93.93
2019-01-30T04:18:00.265Z,93.62
2019-01-30T04:19:00.260Z,93.72
2019-01-30T04:20:00.243Z,93.24
2019-01-30T04:21:00.237Z,93.34
2019-01-30T04:22:00.245Z,93.30
2019-01-30T04:23:00.215Z,93.09
2019-01-30T04:24:00.204Z,93.34
2019-01-30T04:25:00.281Z,93.13
2019-01-30T04:26:00.183Z,93.34
2019-01-30T04:27:00.186Z,93.13
2019-01-30T04:28:00.162Z,93.13
2019-01-30T04:29:00.156Z,93.55
2019-01-30T04:30:00.314Z,93.24
2019-01-30T04:31:00.133Z,93.24
2019-01-30T04:32:00.149Z,93.19
2019-01-30T04:33:00.111Z,93.34
2019-01-30T04:34:00.109Z,93.13
2019-01-30T04:35:00.286Z,93.02
2019-01-30T04:36:00.084Z,93.13
2019-01-30T04:37:00.082Z,93.09
2019-01-30T04:38:00.060Z,93.34
2019-01-30T04:39:00.049Z,92.92
2019-01-30T04:40:00.039Z,92.88
2019-01-30T04:41:00.029Z,92.99
2019-01-30T04:42:00.046Z,92.77
2019-01-30T04:43:00.020Z,92.77
2019-01-30T04:43:59.998Z,92.88
2019-01-30T04:44:59.985Z,92.61
2019-01-30T04:45:59.978Z,92.92
2019-01-30T04:46:59.984Z,92.92
2019-01-30T04:47:59.969Z,92.96
2019-01-30T04:48:59.945Z,92.65
2019-01-30T04:49:59.934Z,92.86
2019-01-30T04:50:59.929Z,93.44
2019-01-30T04:51:59.918Z,93.13
2019-01-30T04:52:59.925Z,93.13
2019-01-30T04:53:59.893Z,93.24
2019-01-30T04:54:59.883Z,93.24
2019-01-30T04:55:59.885Z,93.13
2019-01-30T04:56:59.865Z,93.49
2019-01-30T04:57:59.869Z,93.02
2019-01-30T04:58:59.848Z,93.02
2019-01-30T04:59:59.841Z,92.54
2019-01-30T05:00:59.821Z,93.18
2019-01-30T05:01:59.815Z,93.49
2019-01-30T05:02:59.816Z,93.34
2019-01-30T05:03:59.791Z,92.92
2019-01-30T05:04:59.780Z,93.24
2019-01-30T05:05:59.770Z,92.86
2019-01-30T05:06:59.775Z,92.96
2019-01-30T05:07:59.761Z,92.82
2019-01-30T05:08:59.741Z,93.24
2019-01-30T05:09:59.726Z,92.65
2019-01-30T05:10:59.733Z,93.07
2019-01-30T05:11:59.708Z,93.02
2019-01-30T05:12:59.711Z,92.76
2019-01-30T05:14:01.413Z,93.28
2019-01-30T05:14:59.712Z,92.92
2019-01-30T05:15:59.668Z,92.92
2019-01-30T05:16:59.658Z,93.18
2019-01-30T05:17:59.655Z,92.92
2019-01-30T05:18:59.635Z,92.92
2019-01-30T05:19:59.630Z,92.61
2019-01-30T05:20:59.614Z,93.02
2019-01-30T05:21:59.615Z,92.71
2019-01-30T05:22:59.605Z,92.29
2019-01-30T05:23:59.586Z,92.50
2019-01-30T05:24:59.575Z,92.71
2019-01-30T05:26:00.036Z,92.61
2019-01-30T05:26:59.553Z,92.82
2019-01-30T05:27:59.554Z,92.82
2019-01-30T05:28:59.533Z,92.71
2019-01-30T05:29:59.526Z,92.54
2019-01-30T05:30:59.517Z,92.29
2019-01-30T05:32:01.260Z,92.50
2019-01-30T05:32:59.507Z,92.33
2019-01-30T05:33:59.483Z,92.76
2019-01-30T05:34:59.477Z,92.50
2019-01-30T05:35:59.464Z,92.44
2019-01-30T05:36:59.458Z,92.65
2019-01-30T05:37:59.473Z,92.76
2019-01-30T05:38:59.430Z,92.65
2019-01-30T05:39:59.444Z,92.82
2019-01-30T05:40:59.411Z,92.54
2019-01-30T05:41:59.416Z,92.82
2019-01-30T05:42:59.390Z,92.40
2019-01-30T05:43:59.403Z,92.44
2019-01-30T05:44:59.376Z,92.29
2019-01-30T05:45:59.364Z,92.61
2019-01-30T05:46:59.356Z,92.61
2019-01-30T05:47:59.346Z,92.92
2019-01-30T05:48:59.347Z,92.50
2019-01-30T05:49:59.323Z,92.50
2019-01-30T05:50:59.317Z,92.71
2019-01-30T05:51:59.301Z,92.61
2019-01-30T05:52:59.287Z,92.71
2019-01-30T05:53:59.287Z,92.71
2019-01-30T05:54:59.272Z,92.40
2019-01-30T05:55:59.255Z,93.02
2019-01-30T05:56:59.244Z,92.50
2019-01-30T05:57:59.246Z,92.40
2019-01-30T05:58:59.240Z,92.40
2019-01-30T05:59:59.219Z,92.71
2019-01-30T06:00:59.228Z,92.61
2019-01-30T06:01:59.199Z,92.77
2019-01-30T06:02:59.188Z,92.25
2019-01-30T06:03:59.206Z,91.62
2019-01-30T06:04:59.163Z,92.04
2019-01-30T06:05:59.158Z,92.04
2019-01-30T06:06:59.144Z,91.52
2019-01-30T06:07:59.134Z,91.66
2019-01-30T06:08:59.128Z,91.56
2019-01-30T06:09:59.197Z,91.87
2019-01-30T06:10:59.099Z,91.56
2019-01-30T06:11:59.090Z,91.77
2019-01-30T06:12:59.077Z,91.97
2019-01-30T06:13:59.075Z,91.56
2019-01-30T06:14:59.074Z,91.52
2019-01-30T06:15:59.052Z,91.41
2019-01-30T06:16:59.038Z,91.35
2019-01-30T06:17:59.030Z,91.30
2019-01-30T06:18:59.018Z,91.56
2019-01-30T06:19:59.022Z,91.87
2019-01-30T06:20:59.001Z,91.56
2019-01-30T06:21:58.985Z,91.45
2019-01-30T06:23:01.653Z,91.77
2019-01-30T06:23:58.967Z,91.77
2019-01-30T06:24:58.967Z,91.24
2019-01-30T06:25:58.948Z,91.56
2019-01-30T06:26:58.964Z,91.45
2019-01-30T06:27:58.968Z,91.56
2019-01-30T06:28:58.917Z,91.66
2019-01-30T06:29:58.940Z,90.92
2019-01-30T06:30:58.899Z,91.35
2019-01-30T06:31:58.882Z,91.24
2019-01-30T06:32:58.873Z,91.14
2019-01-30T06:33:58.878Z,90.92
2019-01-30T06:34:58.937Z,91.35
2019-01-30T06:35:58.879Z,91.14
2019-01-30T06:36:58.834Z,90.82
2019-01-30T06:37:58.826Z,90.61
2019-01-30T06:38:58.813Z,90.51
2019-01-30T06:39:58.803Z,90.92
2019-01-30T06:40:58.806Z,90.72
2019-01-30T06:41:58.787Z,90.97
2019-01-30T06:42:58.774Z,90.97
2019-01-30T06:43:58.783Z,90.97
2019-01-30T06:44:58.750Z,91.28
2019-01-30T06:45:58.754Z,91.18
2019-01-30T06:46:58.732Z,90.97
2019-01-30T06:47:58.717Z,91.60
2019-01-30T06:48:58.714Z,91.28
2019-01-30T06:49:58.699Z,91.60
2019-01-30T06:50:58.713Z,91.74
2019-01-30T06:51:58.676Z,91.60
2019-01-30T06:52:58.695Z,91.49
2019-01-30T06:53:58.656Z,91.39
2019-01-30T06:54:58.646Z,91.49
2019-01-30T06:55:58.654Z,91.28
2019-01-30T06:56:58.631Z,91.07
2019-01-30T06:57:58.616Z,90.97
2019-01-30T06:58:58.607Z,91.07
2019-01-30T06:59:58.598Z,90.82
2019-01-30T07:00:58.597Z,91.14
2019-01-30T07:01:58.578Z,90.36
2019-01-30T07:02:58.573Z,89.73
2019-01-30T07:03:58.554Z,89.73
2019-01-30T07:04:58.555Z,89.62
2019-01-30T07:05:58.552Z,89.84
2019-01-30T07:06:58.529Z,88.37
2019-01-30T07:07:58.624Z,87.74
2019-01-30T07:08:58.505Z,87.49
2019-01-30T07:09:58.491Z,87.80
2019-01-30T07:10:58.529Z,87.91
2019-01-30T07:11:58.469Z,87.55
2019-01-30T07:12:58.461Z,87.55
2019-01-30T07:13:58.451Z,86.88
2019-01-30T07:14:58.442Z,86.43
2019-01-30T07:15:58.431Z,85.17
2019-01-30T07:16:58.434Z,84.39
2019-01-30T07:17:58.427Z,83.91
2019-01-30T07:18:58.417Z,84.33
2019-01-30T07:19:58.392Z,83.83
2019-01-30T07:20:58.377Z,83.98
2019-01-30T07:21:58.379Z,83.42
2019-01-30T07:22:58.359Z,82.37
2019-01-30T07:23:58.346Z,82.12
2019-01-30T07:24:58.342Z,82.23
2019-01-30T07:25:58.323Z,81.18
2019-01-30T07:26:58.650Z,81.07
2019-01-30T07:27:58.305Z,81.07
2019-01-30T07:28:58.344Z,81.49
2019-01-30T07:29:58.290Z,81.18
2019-01-30T07:30:58.278Z,81.60
2019-01-30T07:31:58.273Z,82.43
2019-01-30T07:32:58.255Z,82.16
2019-01-30T07:33:58.246Z,82.16
2019-01-30T07:34:58.241Z,82.58
2019-01-30T07:35:58.224Z,82.79
2019-01-30T07:36:58.227Z,82.65
2019-01-30T07:37:58.799Z,82.23
2019-01-30T07:38:58.191Z,82.23
2019-01-30T07:39:58.190Z,81.49
2019-01-30T07:40:58.176Z,81.15
2019-01-30T07:41:58.173Z,80.83
2019-01-30T07:42:58.153Z,81.32
2019-01-30T07:43:58.139Z,80.90
2019-01-30T07:44:58.128Z,80.55
2019-01-30T07:45:58.141Z,79.92
2019-01-30T07:46:58.126Z,79.68
2019-01-30T07:47:58.098Z,78.80
2019-01-30T07:48:58.086Z,78.91
2019-01-30T07:49:58.078Z,78.14
2019-01-30T07:50:58.065Z,77.62
2019-01-30T07:51:58.078Z,77.34
2019-01-30T07:52:58.990Z,76.06
2019-01-30T07:53:58.031Z,74.15
2019-01-30T07:54:58.022Z,74.46
2019-01-30T07:55:58.012Z,73.69
2019-01-30T07:56:58.016Z,73.07
2019-01-30T07:57:57.992Z,73.07
2019-01-30T07:58:57.988Z,72.86
2019-01-30T07:59:57.970Z,73.80
2019-01-30T08:00:57.961Z,73.18
2019-01-30T08:01:57.982Z,73.18
2019-01-30T08:02:57.940Z,72.76
2019-01-30T08:03:57.926Z,72.58
2019-01-30T08:04:57.925Z,73.24
2019-01-30T08:05:57.911Z,73.90
2019-01-30T08:06:57.895Z,75.05
2019-01-30T08:07:57.899Z,75.60
2019-01-30T08:08:57.879Z,75.81
2019-01-30T08:09:57.868Z,75.74
2019-01-30T08:10:57.859Z,75.95
2019-01-30T08:11:57.846Z,76.43
2019-01-30T08:12:57.844Z,76.33
2019-01-30T08:13:57.823Z,76.54
2019-01-30T08:14:57.826Z,76.40
2019-01-30T08:15:57.803Z,74.95
2019-01-30T08:16:57.795Z,74.98
2019-01-30T08:17:57.794Z,75.40
2019-01-30T08:18:57.770Z,75.92
2019-01-30T08:19:57.765Z,76.68
2019-01-30T08:20:57.749Z,76.79
2019-01-30T08:21:57.738Z,76.37
2019-01-30T08:22:57.973Z,75.63
2019-01-30T08:23:57.718Z,75.85
2019-01-30T08:24:57.709Z,76.75
2019-01-30T08:25:57.696Z,76.82
2019-01-30T08:26:57.735Z,75.85
2019-01-30T08:27:58.134Z,74.70
2019-01-30T08:28:57.827Z,73.66
2019-01-30T08:29:57.992Z,73.80
2019-01-30T08:30:57.953Z,74.49
2019-01-30T08:31:57.702Z,74.49
2019-01-30T08:33:04.672Z,73.86
2019-01-30T08:33:58.610Z,74.29
2019-01-30T08:34:57.601Z,74.60
2019-01-30T08:35:57.591Z,74.29
2019-01-30T08:36:57.584Z,74.29
2019-01-30T08:37:57.586Z,74.52
2019-01-30T08:38:57.686Z,73.80
2019-01-30T08:39:57.561Z,74.29
2019-01-30T08:40:57.538Z,73.97
2019-01-30T08:41:57.530Z,73.97
2019-01-30T08:42:57.534Z,74.21
2019-01-30T08:43:58.082Z,74.80
2019-01-30T08:44:57.506Z,74.07
2019-01-30T08:45:57.487Z,74.18
2019-01-30T08:46:57.475Z,73.83
2019-01-30T08:47:57.481Z,73.03
2019-01-30T08:48:57.458Z,74.18
2019-01-30T08:49:57.449Z,73.59
2019-01-30T08:50:57.434Z,74.63
2019-01-30T08:51:57.423Z,74.80
2019-01-30T08:52:57.423Z,74.49
2019-01-30T08:53:57.407Z,74.25
2019-01-30T08:54:57.394Z,72.97
2019-01-30T08:55:57.383Z,73.94
2019-01-30T08:56:57.373Z,73.38
2019-01-30T08:57:57.426Z,72.20
2019-01-30T08:58:57.354Z,71.86
2019-01-30T08:59:57.347Z,70.92
2019-01-30T09:00:57.335Z,70.64
2019-01-30T09:01:57.324Z,69.71
2019-01-30T09:02:57.314Z,71.17
2019-01-30T09:03:57.312Z,70.99
2019-01-30T09:04:57.290Z,71.61
2019-01-30T09:05:57.277Z,71.61
2019-01-30T09:06:57.281Z,71.89
2019-01-30T09:07:57.258Z,71.17
2019-01-30T09:08:57.259Z,69.68
2019-01-30T09:09:57.237Z,69.78
2019-01-30T09:10:57.226Z,69.64
2019-01-30T09:11:57.793Z,69.61
2019-01-30T09:12:57.206Z,68.26
2019-01-30T09:13:57.214Z,68.37
2019-01-30T09:14:57.184Z,68.20
2019-01-30T09:15:57.171Z,67.27
2019-01-30T09:16:57.164Z,66.38
2019-01-30T09:17:57.156Z,64.82
2019-01-30T09:18:57.180Z,64.09
2019-01-30T09:19:57.132Z,65.31
2019-01-30T09:20:57.119Z,65.44
2019-01-30T09:21:57.111Z,66.30
2019-01-30T09:22:57.104Z,67.37
2019-01-30T09:23:57.098Z,67.06
2019-01-30T09:24:57.101Z,66.41
2019-01-30T09:25:57.074Z,66.41
2019-01-30T09:26:57.056Z,66.30
2019-01-30T09:27:57.046Z,66.44
2019-01-30T09:28:57.045Z,65.91
2019-01-30T09:29:57.028Z,67.27
2019-01-30T09:30:57.019Z,66.75
2019-01-30T09:31:57.009Z,66.30
2019-01-30T09:32:56.995Z,66.02
2019-01-30T09:33:57.014Z,66.02
2019-01-30T09:34:56.983Z,66.36
2019-01-30T09:35:56.965Z,66.05
2019-01-30T09:36:56.961Z,66.36
2019-01-30T09:37:56.943Z,66.67
2019-01-30T09:38:56.936Z,66.47
2019-01-30T09:39:56.976Z,68.33
2019-01-30T09:40:56.913Z,66.67
2019-01-30T09:41:56.903Z,66.60
2019-01-30T09:42:57.006Z,67.36
2019-01-30T09:43:56.877Z,67.77
2019-01-30T09:44:56.900Z,68.68
2019-01-30T09:45:56.864Z,67.95
2019-01-30T09:46:56.857Z,67.71
2019-01-30T09:47:56.838Z,67.58
2019-01-30T09:48:56.827Z,67.06
2019-01-30T09:49:56.829Z,66.72
2019-01-30T09:50:56.865Z,66.51
2019-01-30T09:51:56.796Z,66.33
2019-01-30T09:52:56.787Z,66.09
2019-01-30T09:53:57.639Z,66.33
2019-01-30T09:54:56.787Z,66.85
2019-01-30T09:55:56.796Z,67.37
2019-01-30T09:56:56.760Z,67.13
2019-01-30T09:57:56.734Z,66.99
2019-01-30T09:58:56.723Z,66.51
2019-01-30T09:59:56.724Z,66.20
2019-01-30T10:00:56.699Z,65.91
2019-01-30T10:01:56.761Z,66.82
2019-01-30T10:02:56.695Z,66.58
2019-01-30T10:03:56.737Z,65.78
2019-01-30T10:04:56.721Z,65.29
2019-01-30T10:05:56.714Z,65.29
2019-01-30T10:06:56.649Z,66.15
2019-01-30T10:07:56.657Z,66.99
2019-01-30T10:08:56.628Z,67.30
2019-01-30T10:09:56.642Z,66.47
2019-01-30T10:10:56.605Z,66.91
2019-01-30T10:11:56.609Z,67.64
2019-01-30T10:12:56.583Z,68.40
2019-01-30T10:13:56.603Z,68.40
2019-01-30T10:14:56.601Z,68.50
2019-01-30T10:15:56.550Z,68.43
2019-01-30T10:16:56.550Z,69.05
2019-01-30T10:17:56.551Z,69.26
2019-01-30T10:18:56.524Z,68.22
2019-01-30T10:19:56.528Z,68.32
2019-01-30T10:20:56.514Z,67.80
2019-01-30T10:21:56.505Z,67.49
2019-01-30T10:22:56.481Z,68.12
2019-01-30T10:23:56.471Z,68.74
2019-01-30T10:24:56.456Z,69.54
2019-01-30T10:25:56.459Z,69.64
2019-01-30T10:26:56.432Z,67.88
2019-01-30T10:27:56.419Z,67.77
2019-01-30T10:28:56.408Z,67.88
2019-01-30T10:29:58.742Z,67.88
2019-01-30T10:30:56.414Z,67.88
2019-01-30T10:31:56.377Z,67.25
2019-01-30T10:32:56.372Z,68.71
2019-01-30T10:33:56.360Z,69.43
2019-01-30T10:34:56.349Z,69.12
2019-01-30T10:35:56.354Z,68.40
2019-01-30T10:36:56.326Z,68.08
2019-01-30T10:37:56.315Z,67.98
2019-01-30T10:38:56.309Z,66.63
2019-01-30T10:39:56.346Z,67.67
2019-01-30T10:40:56.305Z,67.05
2019-01-30T10:41:56.274Z,67.25
2019-01-30T10:42:57.389Z,67.98
2019-01-30T10:43:56.264Z,67.77
2019-01-30T10:44:56.242Z,68.40
2019-01-30T10:45:56.248Z,68.19
2019-01-30T10:46:56.224Z,67.70
2019-01-30T10:47:56.211Z,69.47
2019-01-30T10:48:56.200Z,68.74
2019-01-30T10:49:56.277Z,68.12
2019-01-30T10:50:56.191Z,68.84
2019-01-30T10:51:56.170Z,68.53
2019-01-30T10:52:56.159Z,68.66
2019-01-30T10:53:56.149Z,68.15
2019-01-30T10:54:56.143Z,69.92
2019-01-30T10:55:56.145Z,69.81
2019-01-30T10:56:56.118Z,68.66
2019-01-30T10:57:56.110Z,69.92
2019-01-30T10:58:56.185Z,69.60
2019-01-30T10:59:56.087Z,69.60
2019-01-30T11:00:56.084Z,69.92
2019-01-30T11:01:56.061Z,68.56
2019-01-30T11:02:56.069Z,68.66
2019-01-30T11:03:57.410Z,69.78
2019-01-30T11:04:56.034Z,69.89
2019-01-30T11:05:56.035Z,68.53
2019-01-30T11:06:56.010Z,67.80
2019-01-30T11:07:55.999Z,67.91
2019-01-30T11:08:55.992Z,67.49
2019-01-30T11:09:56.008Z,67.80
2019-01-30T11:10:55.982Z,68.22
2019-01-30T11:11:55.957Z,68.22
2019-01-30T11:12:55.948Z,68.53
2019-01-30T11:13:55.948Z,66.66
2019-01-30T11:14:55.931Z,67.29
2019-01-30T11:15:55.928Z,68.43
2019-01-30T11:16:55.964Z,67.46
2019-01-30T11:17:56.016Z,66.66
2019-01-30T11:18:55.892Z,67.91
2019-01-30T11:19:55.889Z,67.29
2019-01-30T11:20:55.904Z,66.77
2019-01-30T11:21:55.860Z,65.41
2019-01-30T11:22:55.867Z,65.41
2019-01-30T11:23:55.834Z,65.62
2019-01-30T11:24:55.889Z,65.20
2019-01-30T11:25:57.059Z,64.34
2019-01-30T11:26:55.815Z,64.76
2019-01-30T11:27:55.807Z,65.48
2019-01-30T11:28:55.786Z,64.55
2019-01-30T11:29:55.768Z,64.24
2019-01-30T11:30:55.779Z,64.14
2019-01-30T11:31:55.764Z,64.03
2019-01-30T11:32:55.778Z,64.86
2019-01-30T11:33:55.735Z,63.72
2019-01-30T11:34:55.719Z,63.41
2019-01-30T11:35:55.707Z,64.14
2019-01-30T11:36:55.707Z,64.03
2019-01-30T11:37:55.703Z,64.65
2019-01-30T11:38:55.676Z,64.03
2019-01-30T11:39:55.704Z,64.14
2019-01-30T11:40:55.659Z,64.34
2019-01-30T11:41:55.660Z,63.20
2019-01-30T11:42:55.635Z,63.20
2019-01-30T11:43:55.626Z,64.24
2019-01-30T11:44:55.627Z,62.81
2019-01-30T11:45:55.623Z,63.02
2019-01-30T11:46:55.605Z,64.03
2019-01-30T11:47:55.583Z,64.17
2019-01-30T11:48:56.513Z,64.76
2019-01-30T11:49:55.562Z,64.03
2019-01-30T11:50:55.554Z,64.79
2019-01-30T11:51:55.552Z,64.03
2019-01-30T11:52:55.549Z,64.17
2019-01-30T11:53:55.519Z,64.69
2019-01-30T11:54:55.510Z,64.79
2019-01-30T11:55:55.501Z,64.79
2019-01-30T11:56:55.497Z,65.59
2019-01-30T11:57:55.480Z,63.43
2019-01-30T11:58:55.468Z,63.64
2019-01-30T11:59:55.454Z,63.96
2019-01-30T12:00:55.444Z,64.06
2019-01-30T12:01:55.449Z,64.58
2019-01-30T12:02:55.428Z,62.50
2019-01-30T12:03:55.417Z,63.02
2019-01-30T12:04:55.414Z,63.54
2019-01-30T12:05:55.392Z,63.23
2019-01-30T12:06:55.394Z,64.79
2019-01-30T12:07:55.451Z,65.17
2019-01-30T12:08:55.363Z,64.34
2019-01-30T12:09:55.954Z,63.51
2019-01-30T12:10:55.356Z,64.03
2019-01-30T12:11:55.342Z,62.26
2019-01-30T12:12:55.321Z,63.72
2019-01-30T12:13:55.313Z,64.55
2019-01-30T12:14:55.306Z,64.03
2019-01-30T12:15:55.287Z,64.65
2019-01-30T12:16:55.294Z,65.28
2019-01-30T12:17:55.278Z,64.86
2019-01-30T12:18:55.259Z,65.69
2019-01-30T12:19:55.251Z,64.45
2019-01-30T12:20:55.257Z,64.24
2019-01-30T12:21:55.238Z,63.93
2019-01-30T12:22:55.215Z,64.55
2019-01-30T12:23:55.208Z,64.03
2019-01-30T12:24:55.195Z,65.07
2019-01-30T12:25:55.185Z,62.99
2019-01-30T12:26:55.236Z,64.03
2019-01-30T12:27:55.182Z,63.93
2019-01-30T12:28:55.154Z,63.96
2019-01-30T12:29:55.142Z,63.41
2019-01-30T12:30:55.129Z,64.03
2019-01-30T12:31:55.131Z,63.43
2019-01-30T12:32:55.108Z,62.88
2019-01-30T12:33:55.109Z,63.33
2019-01-30T12:34:55.095Z,62.71
2019-01-30T12:35:55.084Z,64.03
2019-01-30T12:36:55.079Z,64.06
2019-01-30T12:37:55.070Z,65.07
2019-01-30T12:38:55.053Z,63.09
2019-01-30T12:39:55.051Z,61.64
2019-01-30T12:40:55.046Z,61.85
2019-01-30T12:41:55.064Z,62.26
2019-01-30T12:42:55.016Z,62.47
2019-01-30T12:43:54.997Z,63.20
2019-01-30T12:44:55.120Z,63.02
2019-01-30T12:45:54.972Z,63.75
2019-01-30T12:46:54.962Z,63.96
2019-01-30T12:47:54.976Z,64.14
2019-01-30T12:48:54.965Z,64.65
2019-01-30T12:49:54.932Z,63.93
2019-01-30T12:50:54.920Z,65.10
2019-01-30T12:51:54.915Z,65.07